Time;durP1;ratioP1;P1;durP2;ratioP2;P2;SDS_P1;SDS_P2;PMS_P1;PMS_P2;Temp;Humidity;BMP_temperature;BMP_pressure;BME280_temperature;BME280_humidity;BME280_pressure;Samples;Min_cycle;Max_cycle;Signal;HPM_P1;HPM_P2
2020/12/28 00:02:16;;;;;;;2.55;2.10;;;2.00;99.90;;;;;;6130711;23;20076;-84
2020/12/28 00:04:42;;;;;;;2.75;2.50;;;2.00;99.90;;;;;;6155776;23;20093;-83
2020/12/28 00:07:09;;;;;;;2.13;2.03;;;2.00;99.90;;;;;;6156485;23;20025;-83
2020/12/28 00:09:35;;;;;;;2.20;2.00;;;2.00;99.90;;;;;;6131089;23;20448;-85
2020/12/28 00:12:01;;;;;;;2.10;2.00;;;1.90;99.90;;;;;;6130418;23;20048;-84
2020/12/28 00:14:28;;;;;;;3.10;2.10;;;1.90;99.90;;;;;;6154315;23;20037;-85
2020/12/28 00:16:54;;;;;;;3.70;2.65;;;1.90;99.90;;;;;;6130281;23;20024;-84
2020/12/28 00:19:20;;;;;;;2.55;2.35;;;1.90;99.90;;;;;;6130820;23;20088;-83
2020/12/28 00:21:47;;;;;;;2.53;2.33;;;2.00;99.90;;;;;;6130381;23;20114;-84
2020/12/28 00:24:13;;;;;;;2.20;2.00;;;2.00;99.90;;;;;;6156548;23;20018;-84
2020/12/28 00:26:41;;;;;;;3.20;2.38;;;2.00;99.90;;;;;;6130921;23;20088;-84
2020/12/28 00:29:08;;;;;;;2.50;2.30;;;1.90;99.90;;;;;;6156294;23;20531;-83
2020/12/28 00:31:34;;;;;;;3.03;2.72;;;2.00;99.90;;;;;;6130849;23;20476;-86
2020/12/28 00:34:01;;;;;;;2.25;2.05;;;2.00;99.90;;;;;;6146203;23;20040;-85
2020/12/28 00:36:27;;;;;;;5.57;2.80;;;2.00;99.90;;;;;;6182338;23;20065;-83
2020/12/28 00:38:54;;;;;;;2.78;2.50;;;1.90;99.90;;;;;;6156211;23;20041;-83
2020/12/28 00:41:20;;;;;;;2.63;2.42;;;1.90;99.90;;;;;;6145671;23;20029;-85
2020/12/28 00:43:47;;;;;;;3.17;2.25;;;1.90;99.90;;;;;;6136952;23;20028;-84
2020/12/28 00:46:14;;;;;;;3.80;2.63;;;1.90;99.90;;;;;;6163165;23;20026;-84
2020/12/28 00:48:41;;;;;;;3.95;2.40;;;1.90;99.90;;;;;;6136339;23;20097;-85
2020/12/28 00:51:11;;;;;;;2.47;2.00;;;1.90;99.90;;;;;;6136466;23;20073;-84
2020/12/28 00:53:38;;;;;;;3.17;2.55;;;1.90;99.90;;;;;;6136111;23;20026;-85
2020/12/28 00:56:04;;;;;;;2.25;2.03;;;1.90;99.90;;;;;;6135799;23;20096;-85
2020/12/28 00:58:34;;;;;;;2.60;2.40;;;1.80;99.90;;;;;;6136126;23;20022;-85
2020/12/28 01:01:00;;;;;;;3.58;2.95;;;1.80;99.90;;;;;;6161355;23;20472;-85
2020/12/28 01:03:27;;;;;;;2.83;2.03;;;1.80;99.90;;;;;;6135842;23;20021;-85
2020/12/28 01:05:53;;;;;;;3.58;2.50;;;1.90;99.90;;;;;;6161672;23;20025;-85
2020/12/28 01:08:20;;;;;;;3.22;2.95;;;1.80;99.90;;;;;;6161167;23;20021;-85
2020/12/28 01:10:46;;;;;;;4.15;2.97;;;1.70;99.90;;;;;;6136030;23;20057;-86
2020/12/28 01:13:14;;;;;;;2.72;2.40;;;1.60;99.90;;;;;;6135630;23;20345;-85
2020/12/28 01:15:42;;;;;;;2.83;2.60;;;1.50;99.90;;;;;;6160904;23;20029;-85
2020/12/28 01:18:08;;;;;;;3.03;2.72;;;1.50;99.90;;;;;;6134786;23;20056;-86
2020/12/28 01:20:37;;;;;;;2.83;2.63;;;1.40;99.90;;;;;;6135148;23;20068;-85
2020/12/28 01:23:04;;;;;;;2.88;2.63;;;1.30;99.90;;;;;;6135253;23;20021;-85
2020/12/28 01:25:30;;;;;;;5.32;2.60;;;1.30;99.90;;;;;;6134994;23;20021;-84
2020/12/28 01:27:57;;;;;;;3.90;2.65;;;1.30;99.90;;;;;;6161871;23;20341;-85
2020/12/28 01:30:23;;;;;;;2.70;2.30;;;1.20;99.90;;;;;;6162829;23;20045;-85
2020/12/28 01:32:49;;;;;;;4.53;2.58;;;1.20;99.90;;;;;;6136368;23;20076;-85
2020/12/28 01:35:15;;;;;;;3.15;2.80;;;1.10;99.90;;;;;;6132722;23;20021;-84
2020/12/28 01:37:42;;;;;;;4.30;3.13;;;1.10;99.90;;;;;;6131692;23;20032;-84
2020/12/28 01:40:08;;;;;;;3.35;2.90;;;1.10;99.90;;;;;;6131663;23;20025;-84
2020/12/28 01:42:34;;;;;;;3.83;2.95;;;1.10;99.90;;;;;;6131200;23;20045;-83
2020/12/28 01:45:00;;;;;;;5.07;2.80;;;1.10;99.90;;;;;;6131310;23;20148;-83
2020/12/28 01:47:27;;;;;;;5.55;3.20;;;1.00;99.90;;;;;;6132079;23;20430;-85
2020/12/28 01:49:53;;;;;;;3.53;3.00;;;1.00;99.90;;;;;;6133962;23;20067;-83
2020/12/28 01:52:21;;;;;;;4.00;2.78;;;1.00;99.90;;;;;;6135822;23;20345;-84
2020/12/28 01:54:48;;;;;;;3.75;2.85;;;0.90;99.90;;;;;;6135666;23;20049;-85
2020/12/28 01:57:16;;;;;;;3.42;2.45;;;0.90;99.90;;;;;;6161335;23;20072;-85
2020/12/28 01:59:42;;;;;;;4.10;2.70;;;0.90;99.90;;;;;;6141820;23;20021;-85
2020/12/28 02:02:10;;;;;;;4.55;2.35;;;0.90;99.90;;;;;;6159452;23;20096;-85
2020/12/28 02:04:36;;;;;;;3.97;3.00;;;0.90;99.90;;;;;;6160312;23;20052;-85
2020/12/28 02:07:06;;;;;;;4.28;3.05;;;0.90;99.90;;;;;;6159661;23;20057;-85
2020/12/28 02:09:32;;;;;;;3.47;2.83;;;0.90;99.90;;;;;;6160992;23;20032;-85
2020/12/28 02:11:58;;;;;;;3.55;3.00;;;0.90;99.90;;;;;;6159045;23;20480;-85
2020/12/28 02:14:24;;;;;;;4.05;3.15;;;0.80;99.90;;;;;;6159479;23;20033;-85
2020/12/28 02:16:50;;;;;;;3.47;3.17;;;0.80;99.90;;;;;;6160834;23;20096;-84
2020/12/28 02:19:17;;;;;;;3.92;3.47;;;0.80;99.90;;;;;;6183993;23;20033;-85
2020/12/28 02:21:43;;;;;;;3.80;3.40;;;0.70;99.90;;;;;;6159408;23;20021;-85
2020/12/28 02:24:09;;;;;;;6.38;3.30;;;0.70;99.90;;;;;;6158987;23;20025;-84
2020/12/28 02:26:36;;;;;;;6.05;3.13;;;0.80;99.90;;;;;;6159216;23;20026;-85
2020/12/28 02:29:02;;;;;;;3.67;3.28;;;0.80;99.90;;;;;;6183528;23;20060;-85
2020/12/28 02:31:28;;;;;;;4.00;3.45;;;0.70;99.90;;;;;;6159505;23;20032;-85
2020/12/28 02:33:55;;;;;;;5.00;3.00;;;0.70;99.90;;;;;;6161431;23;20088;-85
2020/12/28 02:36:21;;;;;;;4.43;3.45;;;0.70;99.90;;;;;;6159832;23;20049;-85
2020/12/28 02:38:47;;;;;;;3.20;2.90;;;0.70;99.90;;;;;;6158228;23;20017;-84
2020/12/28 02:41:13;;;;;;;3.80;3.42;;;0.80;99.90;;;;;;6158847;23;20444;-84
2020/12/28 02:43:40;;;;;;;3.60;3.25;;;0.70;99.90;;;;;;6158407;23;20045;-84
2020/12/28 02:46:06;;;;;;;4.60;3.78;;;0.70;99.90;;;;;;6159309;23;20076;-84
2020/12/28 02:48:32;;;;;;;6.85;3.72;;;0.60;99.90;;;;;;6160511;23;20037;-84
2020/12/28 02:50:58;;;;;;;6.22;3.78;;;0.60;99.90;;;;;;6161535;23;20308;-85
2020/12/28 02:53:25;;;;;;;3.53;3.20;;;0.60;99.90;;;;;;6161223;23;20360;-85
2020/12/28 02:55:52;;;;;;;5.63;3.83;;;0.70;99.90;;;;;;6161957;23;20022;-85
2020/12/28 02:58:18;;;;;;;3.88;3.40;;;0.60;99.90;;;;;;6162201;23;20448;-85
2020/12/28 03:00:45;;;;;;;4.72;3.00;;;0.70;99.90;;;;;;6161359;23;20021;-85
2020/12/28 03:03:11;;;;;;;3.58;3.22;;;0.60;99.90;;;;;;6160328;23;20021;-85
2020/12/28 03:05:37;;;;;;;3.92;3.17;;;0.50;99.90;;;;;;6160683;23;20049;-84
2020/12/28 03:08:03;;;;;;;6.05;3.55;;;0.50;99.90;;;;;;6134697;23;20096;-85
2020/12/28 03:10:29;;;;;;;7.60;3.83;;;0.50;99.90;;;;;;6159942;23;20068;-85
2020/12/28 03:12:56;;;;;;;5.30;3.53;;;0.50;99.90;;;;;;6133208;23;20022;-85
2020/12/28 03:15:22;;;;;;;6.50;4.05;;;0.50;99.90;;;;;;6132961;23;20037;-85
2020/12/28 03:17:48;;;;;;;6.70;3.63;;;0.50;99.90;;;;;;6159304;23;20048;-83
2020/12/28 03:20:15;;;;;;;4.78;3.47;;;0.50;99.90;;;;;;6133357;23;20040;-85
2020/12/28 03:22:41;;;;;;;3.65;3.20;;;0.50;99.90;;;;;;6132841;23;20022;-84
2020/12/28 03:25:08;;;;;;;6.28;3.63;;;0.50;99.90;;;;;;6130786;23;20048;-84
2020/12/28 03:27:34;;;;;;;4.63;3.75;;;0.60;99.90;;;;;;6156068;23;20096;-83
2020/12/28 03:30:00;;;;;;;5.22;3.85;;;0.60;99.90;;;;;;6130487;23;20025;-84
2020/12/28 03:32:27;;;;;;;4.35;3.42;;;0.60;99.90;;;;;;6130800;23;20389;-83
2020/12/28 03:34:56;;;;;;;7.13;3.72;;;0.60;99.90;;;;;;6156450;23;20021;-83
2020/12/28 03:37:22;;;;;;;4.32;3.70;;;0.70;99.90;;;;;;6130314;23;20056;-83
2020/12/28 03:39:48;;;;;;;6.10;4.13;;;0.70;99.90;;;;;;6130108;23;20037;-84
2020/12/28 03:42:15;;;;;;;5.80;3.45;;;0.70;99.90;;;;;;6131030;23;20025;-83
2020/12/28 03:44:41;;;;;;;5.93;3.85;;;0.60;99.90;;;;;;6130604;23;20344;-83
2020/12/28 03:47:08;;;;;;;6.95;3.88;;;0.60;99.90;;;;;;6130591;23;20064;-83
2020/12/28 03:49:34;;;;;;;4.68;3.53;;;0.70;99.90;;;;;;6130005;23;20033;-84
2020/12/28 03:52:00;;;;;;;8.20;3.70;;;0.70;99.90;;;;;;6156326;23;20104;-83
2020/12/28 03:54:26;;;;;;;4.10;3.65;;;0.70;99.90;;;;;;6130520;23;20097;-83
2020/12/28 03:56:53;;;;;;;8.93;4.10;;;0.70;99.90;;;;;;6130044;23;20017;-84
2020/12/28 03:59:19;;;;;;;4.95;3.45;;;0.70;99.90;;;;;;6131490;23;20022;-83
2020/12/28 04:01:45;;;;;;;6.43;3.58;;;0.70;99.90;;;;;;6156249;23;20024;-83
2020/12/28 04:04:11;;;;;;;5.57;3.67;;;0.70;99.90;;;;;;6156017;23;20092;-83
2020/12/28 04:06:39;;;;;;;3.83;3.45;;;0.70;99.90;;;;;;6156712;23;20563;-85
2020/12/28 04:09:05;;;;;;;4.93;3.28;;;0.80;99.90;;;;;;6156243;23;20032;-84
2020/12/28 04:11:31;;;;;;;4.55;3.25;;;0.80;99.90;;;;;;6155949;23;20480;-84
2020/12/28 04:13:58;;;;;;;5.00;3.50;;;0.80;99.90;;;;;;6155557;23;20021;-84
2020/12/28 04:16:24;;;;;;;5.20;3.28;;;0.80;99.90;;;;;;6157357;23;20079;-85
2020/12/28 04:18:50;;;;;;;5.20;3.58;;;0.80;99.90;;;;;;6157513;23;20089;-84
2020/12/28 04:21:17;;;;;;;4.70;3.42;;;0.80;99.90;;;;;;6157663;23;20026;-83
2020/12/28 04:23:43;;;;;;;5.72;4.47;;;0.80;99.90;;;;;;6157829;23;20064;-85
2020/12/28 04:26:09;;;;;;;6.60;5.22;;;0.70;99.90;;;;;;6155888;23;20045;-84
2020/12/28 04:28:36;;;;;;;5.43;3.78;;;0.70;99.90;;;;;;6155591;23;20047;-84
2020/12/28 04:31:02;;;;;;;8.93;3.85;;;0.80;99.90;;;;;;6157134;23;20097;-84
2020/12/28 04:33:28;;;;;;;7.45;3.90;;;0.90;99.90;;;;;;6155929;23;20060;-85
2020/12/28 04:35:55;;;;;;;4.20;3.42;;;0.90;99.90;;;;;;6155870;23;20021;-84
2020/12/28 04:38:21;;;;;;;3.67;3.17;;;0.80;99.90;;;;;;6158965;23;20057;-85
2020/12/28 04:40:47;;;;;;;4.70;3.53;;;0.90;99.90;;;;;;6159691;23;20069;-85
2020/12/28 04:43:14;;;;;;;3.45;3.05;;;0.90;99.90;;;;;;6160558;23;20028;-85
2020/12/28 04:45:41;;;;;;;4.05;3.50;;;0.90;99.90;;;;;;6158026;23;20472;-85
2020/12/28 04:48:10;;;;;;;10.25;4.03;;;0.80;99.90;;;;;;6159489;23;20028;-85
2020/12/28 04:50:38;;;;;;;7.40;4.13;;;0.80;99.90;;;;;;6157283;23;20026;-85
2020/12/28 04:53:05;;;;;;;5.20;3.40;;;0.80;99.90;;;;;;6160624;23;20072;-85
2020/12/28 04:55:31;;;;;;;5.85;3.50;;;0.90;99.90;;;;;;6158012;23;20052;-85
2020/12/28 04:57:58;;;;;;;4.63;3.25;;;0.90;99.90;;;;;;6157594;23;20041;-85
2020/12/28 05:00:25;;;;;;;4.90;4.07;;;0.80;99.90;;;;;;6160250;23;20028;-84
2020/12/28 05:02:52;;;;;;;4.85;3.58;;;0.80;99.90;;;;;;6164229;23;20021;-84
2020/12/28 05:05:19;;;;;;;6.65;3.88;;;0.70;99.90;;;;;;6161182;23;20068;-84
2020/12/28 05:07:49;;;;;;;4.40;3.88;;;0.80;99.90;;;;;;6162764;23;20025;-84
2020/12/28 05:10:26;;;;;;;5.95;3.53;;;0.80;99.90;;;;;;6160583;23;20337;-84
2020/12/28 05:12:54;;;;;;;6.95;3.70;;;0.90;99.90;;;;;;6159478;23;20025;-84
2020/12/28 05:15:20;;;;;;;4.18;3.15;;;0.90;99.90;;;;;;6156005;23;20032;-84
2020/12/28 05:17:53;;;;;;;3.40;3.10;;;1.00;99.90;;;;;;6156039;23;20051;-84
2020/12/28 05:20:24;;;;;;;6.63;3.85;;;1.00;99.90;;;;;;6156336;23;20092;-84
2020/12/28 05:22:54;;;;;;;5.53;3.80;;;1.00;99.90;;;;;;6155849;23;20013;-84
2020/12/28 05:25:22;;;;;;;4.93;3.13;;;1.00;99.90;;;;;;6155756;23;20049;-84
2020/12/28 05:27:49;;;;;;;5.53;3.63;;;1.00;99.90;;;;;;6156414;23;20070;-84
2020/12/28 05:30:20;;;;;;;6.15;3.55;;;0.90;99.90;;;;;;6156346;23;20025;-84
2020/12/28 05:32:47;;;;;;;3.78;3.35;;;1.00;99.90;;;;;;6156122;23;20105;-84
2020/12/28 05:35:14;;;;;;;9.20;3.75;;;1.00;99.90;;;;;;6156391;23;20048;-84
2020/12/28 05:37:45;;;;;;;3.67;3.30;;;1.00;99.90;;;;;;6157890;23;20022;-83
2020/12/28 05:40:12;;;;;;;4.97;2.88;;;1.00;99.90;;;;;;6156521;23;20022;-83
2020/12/28 05:42:50;;;;;;;5.85;3.72;;;1.00;99.90;;;;;;6158650;23;20076;-84
2020/12/28 05:45:17;;;;;;;4.28;3.88;;;1.00;99.90;;;;;;6158431;23;20096;-84
2020/12/28 05:47:48;;;;;;;4.50;3.40;;;1.10;99.90;;;;;;6156708;23;20025;-84
2020/12/28 05:50:20;;;;;;;5.40;3.40;;;1.10;99.90;;;;;;6157527;23;20025;-84
2020/12/28 05:52:52;;;;;;;5.90;3.53;;;1.10;99.90;;;;;;6156442;23;20025;-84
2020/12/28 05:55:21;;;;;;;5.43;3.40;;;1.10;99.90;;;;;;6158022;23;20029;-84
2020/12/28 05:57:48;;;;;;;5.65;3.65;;;1.00;99.90;;;;;;6157364;23;20018;-84
2020/12/28 06:00:17;;;;;;;8.05;3.70;;;1.10;99.90;;;;;;6158015;23;20023;-84
2020/12/28 06:02:43;;;;;;;4.65;3.25;;;1.00;99.90;;;;;;6156712;23;20021;-85
2020/12/28 06:05:15;;;;;;;6.60;3.60;;;1.00;99.90;;;;;;6158020;23;20097;-84
2020/12/28 06:07:41;;;;;;;4.93;3.72;;;1.00;99.90;;;;;;6158860;23;20053;-84
2020/12/28 06:10:09;;;;;;;5.25;3.35;;;1.10;99.90;;;;;;6156083;23;20064;-84
2020/12/28 06:12:35;;;;;;;3.65;3.30;;;1.10;99.90;;;;;;6155983;23;20025;-83
2020/12/28 06:15:03;;;;;;;5.65;3.75;;;1.20;99.90;;;;;;6156300;23;20120;-84
2020/12/28 06:17:34;;;;;;;4.18;3.40;;;1.00;99.90;;;;;;6157386;23;20052;-84
2020/12/28 06:20:03;;;;;;;3.55;3.25;;;1.00;99.90;;;;;;6156496;23;20064;-83
2020/12/28 06:22:31;;;;;;;4.78;3.80;;;1.10;99.90;;;;;;6158728;23;20024;-84
2020/12/28 06:25:01;;;;;;;6.47;4.05;;;1.00;99.90;;;;;;6156933;23;20076;-84
2020/12/28 06:27:30;;;;;;;4.93;3.90;;;1.10;99.90;;;;;;6163553;23;20044;-85
2020/12/28 06:30:18;;;;;;;4.60;3.63;;;1.20;99.90;;;;;;6166101;23;20381;-85
2020/12/28 06:32:47;;;;;;;4.75;3.75;;;1.10;99.90;;;;;;6172496;23;20080;-85
2020/12/28 06:35:15;;;;;;;7.20;3.92;;;1.10;99.90;;;;;;6164280;23;20075;-85
2020/12/28 06:37:44;;;;;;;5.43;2.97;;;1.00;99.90;;;;;;6164807;23;20076;-85
2020/12/28 06:40:12;;;;;;;6.32;4.00;;;1.00;99.90;;;;;;6163324;23;20022;-85
2020/12/28 06:42:40;;;;;;;4.82;3.83;;;0.90;99.90;;;;;;6164476;23;20021;-84
2020/12/28 06:45:16;;;;;;;5.07;3.90;;;1.00;99.90;;;;;;6164591;23;20021;-84
2020/12/28 06:47:43;;;;;;;6.05;3.65;;;1.00;99.90;;;;;;6162977;23;20084;-84
2020/12/28 06:50:11;;;;;;;5.72;4.13;;;1.00;99.90;;;;;;6163786;23;20530;-84
2020/12/28 06:52:37;;;;;;;6.93;4.72;;;0.90;99.90;;;;;;6161180;23;20053;-85
2020/12/28 06:55:10;;;;;;;6.20;3.97;;;0.90;99.90;;;;;;6163554;23;20101;-84
2020/12/28 06:57:37;;;;;;;5.57;3.67;;;0.80;99.90;;;;;;6160437;23;20049;-84
2020/12/28 07:00:17;;;;;;;4.20;3.28;;;0.80;99.90;;;;;;6160607;23;20041;-84
2020/12/28 07:02:52;;;;;;;4.82;3.85;;;0.90;99.90;;;;;;6160343;23;20350;-84
2020/12/28 07:05:23;;;;;;;6.70;4.50;;;0.90;99.90;;;;;;6159328;23;20057;-84
2020/12/28 07:07:51;;;;;;;7.05;5.55;;;0.90;99.90;;;;;;6155599;23;20096;-84
2020/12/28 07:10:22;;;;;;;4.72;3.40;;;0.90;99.90;;;;;;6156880;23;20059;-83
2020/12/28 07:12:49;;;;;;;10.25;7.18;;;1.00;99.90;;;;;;6156583;23;20064;-84
2020/12/28 07:15:17;;;;;;;5.80;4.80;;;1.00;99.90;;;;;;6156255;23;20026;-84
2020/12/28 07:17:43;;;;;;;4.95;4.32;;;1.10;99.90;;;;;;6158117;23;20077;-84
2020/12/28 07:20:13;;;;;;;5.25;4.38;;;1.00;99.90;;;;;;6156496;23;20475;-84
2020/12/28 07:22:43;;;;;;;7.30;4.32;;;1.10;99.90;;;;;;6157082;23;20334;-84
2020/12/28 07:25:12;;;;;;;5.35;4.10;;;1.10;99.90;;;;;;6159192;23;20021;-84
2020/12/28 07:27:41;;;;;;;4.70;4.10;;;1.20;99.90;;;;;;6158115;23;20049;-84
2020/12/28 07:30:09;;;;;;;3.53;3.22;;;1.20;99.90;;;;;;6159411;23;20049;-84
2020/12/28 07:32:35;;;;;;;5.68;3.60;;;1.30;99.90;;;;;;6156411;23;20048;-84
2020/12/28 07:35:02;;;;;;;4.68;3.80;;;1.20;99.90;;;;;;6158258;23;20026;-84
2020/12/28 07:37:29;;;;;;;4.43;3.45;;;1.20;99.90;;;;;;6158041;23;20352;-84
2020/12/28 07:39:56;;;;;;;4.85;3.70;;;1.30;99.90;;;;;;6161269;23;20022;-84
2020/12/28 07:42:25;;;;;;;5.07;4.45;;;1.30;99.90;;;;;;6159788;23;20021;-83
2020/12/28 07:45:00;;;;;;;10.60;6.60;;;1.30;99.90;;;;;;6157267;23;20092;-84
2020/12/28 07:47:48;;;;;;;5.90;4.05;;;1.30;99.90;;;;;;6156050;23;20025;-85
2020/12/28 07:50:16;;;;;;;6.65;4.18;;;1.30;99.90;;;;;;6155550;23;20034;-84
2020/12/28 07:52:55;;;;;;;8.05;4.55;;;1.40;99.90;;;;;;6158006;23;20025;-84
2020/12/28 07:55:24;;;;;;;5.63;4.03;;;1.40;99.90;;;;;;6156096;23;20392;-84
2020/12/28 07:58:13;;;;;;;5.32;4.43;;;1.30;99.90;;;;;;6157674;23;20093;-84
2020/12/28 08:00:46;;;;;;;6.60;4.07;;;1.40;99.90;;;;;;6160009;23;20380;-84
2020/12/28 08:03:15;;;;;;;4.45;3.85;;;1.30;99.90;;;;;;6134498;23;20025;-84
2020/12/28 08:05:43;;;;;;;6.88;4.18;;;1.30;99.90;;;;;;6160006;23;20021;-84
2020/12/28 08:08:20;;;;;;;5.93;4.75;;;1.30;99.90;;;;;;6160204;23;20084;-84
2020/12/28 08:10:58;;;;;;;4.85;4.18;;;1.40;99.90;;;;;;6159673;23;20025;-84
2020/12/28 08:13:29;;;;;;;6.55;4.68;;;1.40;99.90;;;;;;6160068;23;20021;-84
2020/12/28 08:16:13;;;;;;;5.40;4.43;;;1.50;99.90;;;;;;6134695;23;20053;-84
2020/12/28 08:18:54;;;;;;;10.40;5.18;;;1.50;99.90;;;;;;6160278;23;20013;-85
2020/12/28 08:21:24;;;;;;;7.90;5.85;;;1.60;99.90;;;;;;6164818;23;20052;-85
2020/12/28 08:23:55;;;;;;;9.77;6.15;;;1.60;99.90;;;;;;6166132;23;20024;-86
2020/12/28 08:26:27;;;;;;;9.85;5.40;;;1.70;99.90;;;;;;6165606;23;20028;-85
2020/12/28 08:29:01;;;;;;;5.03;4.20;;;1.80;99.90;;;;;;6138770;23;20068;-85
2020/12/28 08:31:30;;;;;;;5.30;3.38;;;1.80;99.90;;;;;;6138331;23;20018;-85
2020/12/28 08:34:08;;;;;;;5.95;4.90;;;1.80;99.90;;;;;;6164371;23;20045;-85
2020/12/28 08:36:37;;;;;;;6.53;5.35;;;1.90;99.90;;;;;;6164222;23;20022;-84
2020/12/28 08:39:15;;;;;;;7.18;6.40;;;2.00;99.90;;;;;;6163590;23;20096;-84
2020/12/28 08:41:55;;;;;;;6.72;5.75;;;2.00;99.90;;;;;;6137345;23;20022;-84
2020/12/28 08:44:33;;;;;;;6.95;5.30;;;2.20;99.90;;;;;;6138073;23;20025;-85
2020/12/28 08:47:13;;;;;;;7.32;5.68;;;2.30;99.90;;;;;;6136717;23;20085;-84
2020/12/28 08:49:45;;;;;;;7.45;5.22;;;2.40;99.90;;;;;;6163285;23;20104;-84
2020/12/28 08:52:20;;;;;;;5.47;4.38;;;2.40;99.90;;;;;;6163282;23;20021;-84
2020/12/28 08:54:57;;;;;;;7.18;5.38;;;2.50;99.90;;;;;;6137476;23;20021;-84
2020/12/28 08:57:26;;;;;;;7.43;5.15;;;2.60;99.90;;;;;;6162964;23;20021;-85
2020/12/28 08:59:53;;;;;;;5.78;3.78;;;2.60;99.90;;;;;;6155406;23;20021;-85
2020/12/28 09:02:22;;;;;;;4.30;3.65;;;2.80;99.90;;;;;;6130696;23;20157;-84
2020/12/28 09:04:49;;;;;;;9.25;5.70;;;2.90;99.90;;;;;;6131099;23;20032;-85
2020/12/28 09:07:16;;;;;;;8.00;4.88;;;2.80;99.90;;;;;;6157052;23;20036;-84
2020/12/28 09:09:44;;;;;;;9.85;5.55;;;2.90;99.90;;;;;;6132187;23;20096;-84
2020/12/28 09:12:12;;;;;;;8.68;6.30;;;2.90;99.90;;;;;;6158452;23;20464;-85
2020/12/28 09:14:39;;;;;;;11.65;7.05;;;2.90;99.90;;;;;;6159778;23;20025;-84
2020/12/28 09:17:14;;;;;;;9.82;6.25;;;3.00;99.90;;;;;;6136585;23;20028;-85
2020/12/28 09:19:40;;;;;;;8.10;5.63;;;3.10;99.90;;;;;;6134335;23;20492;-85
2020/12/28 09:22:06;;;;;;;6.50;4.03;;;3.20;99.90;;;;;;6135019;23;20028;-85
2020/12/28 09:24:33;;;;;;;6.43;4.65;;;3.20;99.90;;;;;;6136054;23;20023;-85
2020/12/28 09:26:59;;;;;;;4.70;4.10;;;3.30;99.90;;;;;;6135578;23;20427;-85
2020/12/28 09:29:25;;;;;;;4.60;4.05;;;3.30;99.90;;;;;;6135011;23;20037;-86
2020/12/28 09:31:53;;;;;;;7.05;4.35;;;3.40;99.90;;;;;;6135565;23;20056;-85
2020/12/28 09:34:19;;;;;;;6.20;4.68;;;3.50;99.90;;;;;;6135011;23;20025;-85
2020/12/28 09:36:45;;;;;;;5.80;4.70;;;3.60;99.90;;;;;;6162481;23;20076;-85
2020/12/28 09:39:11;;;;;;;6.07;4.28;;;3.60;99.90;;;;;;6163113;23;20076;-85
2020/12/28 09:41:38;;;;;;;5.35;4.38;;;3.70;99.90;;;;;;6137114;23;20033;-86
2020/12/28 09:44:04;;;;;;;5.90;4.20;;;3.80;99.90;;;;;;6163062;23;20021;-85
2020/12/28 09:46:30;;;;;;;6.22;4.70;;;3.70;99.90;;;;;;6138195;23;20045;-85
2020/12/28 09:48:56;;;;;;;5.57;4.38;;;3.60;99.90;;;;;;6165072;23;20022;-86
2020/12/28 09:51:23;;;;;;;5.43;4.32;;;3.70;99.90;;;;;;6138721;23;20028;-85
2020/12/28 09:53:49;;;;;;;12.88;8.02;;;3.70;99.90;;;;;;6164462;23;20130;-85
2020/12/28 09:56:26;;;;;;;12.07;7.32;;;3.70;99.90;;;;;;6140591;23;20049;-86
2020/12/28 09:58:52;;;;;;;13.02;8.20;;;3.80;99.90;;;;;;6164629;23;20097;-85
2020/12/28 10:01:19;;;;;;;9.95;6.60;;;3.80;99.90;;;;;;6165555;23;20021;-85
2020/12/28 10:03:45;;;;;;;9.57;6.40;;;3.80;99.90;;;;;;6139941;23;20018;-85
2020/12/28 10:06:31;;;;;;;10.35;7.22;;;3.80;99.90;;;;;;6139723;23;20017;-85
2020/12/28 10:09:17;;;;;;;6.53;5.30;;;3.80;99.90;;;;;;6166133;23;20018;-86
2020/12/28 10:11:44;;;;;;;9.63;6.18;;;3.70;99.90;;;;;;6150348;23;20029;-86
2020/12/28 10:14:10;;;;;;;9.30;5.18;;;3.60;99.90;;;;;;6160294;23;20009;-86
2020/12/28 10:16:36;;;;;;;9.00;5.82;;;3.70;99.90;;;;;;6159747;23;20075;-86
2020/12/28 10:19:03;;;;;;;8.45;6.97;;;3.70;99.90;;;;;;6159290;23;20013;-87
2020/12/28 10:21:30;;;;;;;10.82;6.72;;;3.80;99.90;;;;;;6159319;23;20010;-86
2020/12/28 10:23:56;;;;;;;11.02;7.07;;;3.90;99.90;;;;;;6146395;23;20053;-86
2020/12/28 10:26:25;;;;;;;7.47;6.57;;;4.00;99.90;;;;;;6172370;23;20032;-86
2020/12/28 10:28:54;;;;;;;8.25;6.50;;;4.20;99.90;;;;;;6145726;23;20021;-86
2020/12/28 10:31:21;;;;;;;9.43;6.38;;;4.40;99.90;;;;;;6145288;23;20033;-86
2020/12/28 10:34:07;;;;;;;9.55;5.78;;;4.50;99.90;;;;;;6149574;23;20077;-86
2020/12/28 10:36:34;;;;;;;9.85;6.78;;;4.70;99.90;;;;;;6145236;23;20029;-86
2020/12/28 10:39:05;;;;;;;12.13;6.53;;;4.80;99.90;;;;;;6147339;23;20105;-86
2020/12/28 10:41:32;;;;;;;9.63;6.00;;;5.00;99.90;;;;;;6172093;23;20074;-86
2020/12/28 10:43:59;;;;;;;6.50;5.60;;;5.10;99.90;;;;;;6170967;23;20534;-86
2020/12/28 10:46:30;;;;;;;8.15;6.00;;;5.20;99.90;;;;;;6146272;23;20025;-86
2020/12/28 10:48:57;;;;;;;7.68;6.07;;;5.30;99.90;;;;;;6144268;23;20021;-86
2020/12/28 10:51:23;;;;;;;6.13;5.35;;;5.50;99.90;;;;;;6133725;23;20100;-85
2020/12/28 10:53:49;;;;;;;8.23;5.63;;;5.60;99.90;;;;;;6134464;23;20049;-86
2020/12/28 10:56:29;;;;;;;6.40;5.47;;;5.70;99.90;;;;;;6137032;23;20021;-86
2020/12/28 10:58:56;;;;;;;7.93;5.70;;;5.80;99.90;;;;;;6143692;23;20025;-86
2020/12/28 11:01:25;;;;;;;7.13;5.18;;;5.80;99.90;;;;;;6164692;23;20022;-86
2020/12/28 11:03:54;;;;;;;6.55;5.10;;;5.90;99.90;;;;;;6137529;23;20072;-86
2020/12/28 11:06:22;;;;;;;5.05;4.60;;;5.90;99.90;;;;;;6136983;23;20052;-85
2020/12/28 11:08:49;;;;;;;5.35;4.68;;;6.00;99.90;;;;;;6136164;23;20037;-86
2020/12/28 11:11:16;;;;;;;5.95;4.80;;;6.00;99.90;;;;;;6162503;23;20032;-86
2020/12/28 11:13:43;;;;;;;6.03;4.50;;;6.00;99.90;;;;;;6162516;23;20025;-86
2020/12/28 11:16:10;;;;;;;6.72;4.97;;;5.90;99.90;;;;;;6161659;23;20095;-85
2020/12/28 11:18:38;;;;;;;8.45;6.38;;;5.80;99.90;;;;;;6161437;23;20476;-86
2020/12/28 11:21:05;;;;;;;11.10;7.03;;;5.80;99.90;;;;;;6135863;23;20021;-86
2020/12/28 11:26:19;;;;;;;8.00;6.20;;;5.90;99.90;;;;;;6161755;23;20080;-86
2020/12/28 11:28:46;;;;;;;30.02;22.23;;;5.80;99.90;;;;;;6161778;23;20468;-86
2020/12/28 11:31:15;;;;;;;12.45;9.88;;;5.80;99.90;;;;;;6134987;23;20021;-86
2020/12/28 11:33:42;;;;;;;8.35;7.10;;;5.80;99.90;;;;;;6136277;23;20022;-86
2020/12/28 11:36:08;;;;;;;11.32;6.45;;;5.70;99.90;;;;;;6136041;23;20036;-86
2020/12/28 11:38:35;;;;;;;6.57;5.28;;;5.70;99.90;;;;;;6135878;23;20066;-85
2020/12/28 11:41:01;;;;;;;5.65;4.30;;;5.80;99.90;;;;;;6135391;23;20024;-86
2020/12/28 11:43:28;;;;;;;5.85;4.75;;;5.80;99.90;;;;;;6135922;23;20483;-85
2020/12/28 11:45:57;;;;;;;5.85;4.32;;;5.90;99.90;;;;;;6136255;23;20020;-86
2020/12/28 11:48:23;;;;;;;3.95;3.38;;;6.00;99.90;;;;;;6161594;23;20025;-86
2020/12/28 11:50:50;;;;;;;3.70;3.30;;;6.00;99.90;;;;;;6135254;23;20101;-86
2020/12/28 11:53:16;;;;;;;4.35;3.50;;;5.90;99.90;;;;;;6135839;23;20076;-86
2020/12/28 11:58:28;;;;;;;3.30;3.00;;;5.80;99.90;;;;;;6161502;23;20022;-86
2020/12/28 12:00:54;;;;;;;6.32;3.50;;;5.80;99.90;;;;;;6134735;23;20064;-86
2020/12/28 12:03:20;;;;;;;4.88;3.50;;;5.90;99.90;;;;;;6139727;23;20021;-86
2020/12/28 12:05:47;;;;;;;4.65;3.67;;;5.80;99.90;;;;;;6138919;23;20018;-87
2020/12/28 12:08:13;;;;;;;6.13;3.35;;;6.00;99.90;;;;;;6138629;23;20032;-86
2020/12/28 12:10:40;;;;;;;3.97;3.53;;;6.00;99.90;;;;;;6163260;23;20052;-87
2020/12/28 12:13:06;;;;;;;4.47;3.85;;;6.10;99.90;;;;;;6162341;23;20044;-86
2020/12/28 12:15:33;;;;;;;3.72;3.33;;;6.00;99.90;;;;;;6136035;23;20025;-86
2020/12/28 12:17:59;;;;;;;14.63;8.10;;;5.90;99.90;;;;;;6135939;23;20060;-87
2020/12/28 12:20:25;;;;;;;22.20;11.48;;;5.80;99.90;;;;;;6135890;23;20444;-86
2020/12/28 12:22:53;;;;;;;15.82;7.72;;;5.60;99.90;;;;;;6161714;23;20021;-87
2020/12/28 12:25:19;;;;;;;6.40;4.32;;;5.70;99.90;;;;;;6161273;23;20021;-86
2020/12/28 12:27:45;;;;;;;6.68;4.60;;;5.70;99.90;;;;;;6160016;23;20338;-86
2020/12/28 12:30:12;;;;;;;5.60;4.72;;;5.80;99.90;;;;;;6160069;23;20025;-86
2020/12/28 12:32:38;;;;;;;6.70;6.05;;;5.50;99.90;;;;;;6133288;23;20480;-86
2020/12/28 12:35:04;;;;;;;5.78;3.97;;;5.50;99.90;;;;;;6133739;23;20527;-86
2020/12/28 12:37:30;;;;;;;4.80;4.30;;;5.50;99.90;;;;;;6133358;23;20017;-86
2020/12/28 12:39:56;;;;;;;5.70;4.78;;;5.60;99.90;;;;;;6133976;23;20022;-86
2020/12/28 12:42:25;;;;;;;8.75;5.38;;;5.70;99.90;;;;;;6131096;23;20072;-86
2020/12/28 12:44:51;;;;;;;14.00;7.72;;;5.70;99.90;;;;;;6130819;23;20049;-86
2020/12/28 12:47:19;;;;;;;13.95;7.65;;;5.70;99.90;;;;;;6131354;23;20025;-85
2020/12/28 12:49:45;;;;;;;11.15;6.97;;;5.80;99.90;;;;;;6157201;23;20025;-86
2020/12/28 12:52:12;;;;;;;10.75;6.60;;;5.80;99.90;;;;;;6131822;23;20030;-86
2020/12/28 12:54:39;;;;;;;8.15;5.88;;;5.80;99.90;;;;;;6131385;23;20044;-85
2020/12/28 12:57:06;;;;;;;10.00;6.75;;;5.70;99.90;;;;;;6131395;23;20026;-85
2020/12/28 13:00:01;;;;;;;10.48;6.03;;;5.80;99.90;;;;;;6131226;23;20053;-85
2020/12/28 13:02:19;;;;;;;6.88;5.22;;;5.80;99.90;;;;;;6156938;23;20104;-86
2020/12/28 13:04:45;;;;;;;5.47;4.70;;;5.80;99.90;;;;;;6157727;23;20022;-86
2020/12/28 13:07:11;;;;;;;5.97;4.10;;;5.90;99.90;;;;;;6132243;23;20109;-86